sensor_id;sensor_type;location;lat;lon;timestamp;P1;durP1;ratioP1;P2;durP2;ratioP2
75930;SDS011;64609;47.052;15.462;2023-12-28T00:00:42;234.95;;;37.83;;
75930;SDS011;64609;47.052;15.462;2023-12-28T00:03:08;345.58;;;40.03;;
75930;SDS011;64609;47.052;15.462;2023-12-28T00:05:33;218.88;;;74.22;;
75930;SDS011;64609;47.052;15.462;2023-12-28T00:07:59;117.97;;;51.33;;
75930;SDS011;64609;47.052;15.462;2023-12-28T00:10:25;108.10;;;34.28;;
75930;SDS011;64609;47.052;15.462;2023-12-28T00:12:53;69.30;;;43.25;;
75930;SDS011;64609;47.052;15.462;2023-12-28T00:15:19;49.00;;;32.08;;
75930;SDS011;64609;47.052;15.462;2023-12-28T00:17:44;113.55;;;33.40;;
75930;SDS011;64609;47.052;15.462;2023-12-28T00:20:10;60.90;;;29.75;;
75930;SDS011;64609;47.052;15.462;2023-12-28T00:22:36;71.97;;;32.78;;
75930;SDS011;64609;47.052;15.462;2023-12-28T00:25:03;80.78;;;31.17;;
75930;SDS011;64609;47.052;15.462;2023-12-28T00:27:29;67.82;;;31.98;;
75930;SDS011;64609;47.052;15.462;2023-12-28T00:29:55;139.93;;;31.05;;
75930;SDS011;64609;47.052;15.462;2023-12-28T00:32:20;169.13;;;34.97;;
75930;SDS011;64609;47.052;15.462;2023-12-28T00:34:46;134.20;;;33.63;;
75930;SDS011;64609;47.052;15.462;2023-12-28T00:37:11;185.57;;;35.00;;
75930;SDS011;64609;47.052;15.462;2023-12-28T00:39:37;260.55;;;36.28;;
75930;SDS011;64609;47.052;15.462;2023-12-28T00:42:04;123.65;;;32.28;;
75930;SDS011;64609;47.052;15.462;2023-12-28T00:44:30;132.85;;;31.98;;
75930;SDS011;64609;47.052;15.462;2023-12-28T00:46:55;174.88;;;33.35;;
75930;SDS011;64609;47.052;15.462;2023-12-28T00:49:21;174.75;;;29.15;;
75930;SDS011;64609;47.052;15.462;2023-12-28T00:51:46;253.25;;;33.72;;
75930;SDS011;64609;47.052;15.462;2023-12-28T00:54:12;279.00;;;36.28;;
75930;SDS011;64609;47.052;15.462;2023-12-28T00:56:37;155.05;;;26.05;;
75930;SDS011;64609;47.052;15.462;2023-12-28T00:59:03;214.82;;;28.98;;
75930;SDS011;64609;47.052;15.462;2023-12-28T01:01:29;56.58;;;22.63;;
75930;SDS011;64609;47.052;15.462;2023-12-28T01:03:56;165.50;;;27.70;;
75930;SDS011;64609;47.052;15.462;2023-12-28T01:06:21;127.80;;;24.70;;
75930;SDS011;64609;47.052;15.462;2023-12-28T01:08:47;75.10;;;25.55;;
75930;SDS011;64609;47.052;15.462;2023-12-28T01:11:13;73.78;;;25.42;;
75930;SDS011;64609;47.052;15.462;2023-12-28T01:13:38;52.85;;;23.30;;
75930;SDS011;64609;47.052;15.462;2023-12-28T01:16:04;41.75;;;23.05;;
75930;SDS011;64609;47.052;15.462;2023-12-28T01:18:30;28.17;;;22.13;;
75930;SDS011;64609;47.052;15.462;2023-12-28T01:20:56;34.53;;;23.98;;
75930;SDS011;64609;47.052;15.462;2023-12-28T01:23:21;54.17;;;23.63;;
75930;SDS011;64609;47.052;15.462;2023-12-28T01:25:47;45.17;;;22.98;;
75930;SDS011;64609;47.052;15.462;2023-12-28T01:28:12;131.88;;;24.25;;
75930;SDS011;64609;47.052;15.462;2023-12-28T01:30:38;156.07;;;23.70;;
75930;SDS011;64609;47.052;15.462;2023-12-28T01:33:04;116.50;;;26.25;;
75930;SDS011;64609;47.052;15.462;2023-12-28T01:35:29;77.88;;;24.13;;
75930;SDS011;64609;47.052;15.462;2023-12-28T01:37:55;37.95;;;22.67;;
75930;SDS011;64609;47.052;15.462;2023-12-28T01:40:21;41.05;;;21.42;;
75930;SDS011;64609;47.052;15.462;2023-12-28T01:42:46;124.40;;;23.90;;
75930;SDS011;64609;47.052;15.462;2023-12-28T01:45:12;169.93;;;26.67;;
75930;SDS011;64609;47.052;15.462;2023-12-28T01:47:37;51.72;;;23.85;;
75930;SDS011;64609;47.052;15.462;2023-12-28T01:50:05;26.70;;;20.50;;
75930;SDS011;64609;47.052;15.462;2023-12-28T01:52:31;48.92;;;21.15;;
75930;SDS011;64609;47.052;15.462;2023-12-28T01:54:57;100.57;;;23.05;;
75930;SDS011;64609;47.052;15.462;2023-12-28T01:57:23;98.88;;;22.67;;
75930;SDS011;64609;47.052;15.462;2023-12-28T01:59:49;75.45;;;17.55;;
75930;SDS011;64609;47.052;15.462;2023-12-28T02:02:15;120.32;;;22.30;;
75930;SDS011;64609;47.052;15.462;2023-12-28T02:04:42;30.55;;;22.48;;
75930;SDS011;64609;47.052;15.462;2023-12-28T02:07:08;105.90;;;21.13;;
75930;SDS011;64609;47.052;15.462;2023-12-28T02:09:35;187.82;;;22.70;;
75930;SDS011;64609;47.052;15.462;2023-12-28T02:12:01;29.38;;;17.45;;
75930;SDS011;64609;47.052;15.462;2023-12-28T02:14:27;179.00;;;18.30;;
75930;SDS011;64609;47.052;15.462;2023-12-28T02:19:56;31.98;;;18.90;;
75930;SDS011;64609;47.052;15.462;2023-12-28T02:22:24;22.70;;;15.63;;
75930;SDS011;64609;47.052;15.462;2023-12-28T02:24:56;68.30;;;19.73;;
75930;SDS011;64609;47.052;15.462;2023-12-28T02:27:25;97.38;;;21.40;;
75930;SDS011;64609;47.052;15.462;2023-12-28T02:29:51;105.85;;;19.58;;
75930;SDS011;64609;47.052;15.462;2023-12-28T02:32:19;45.95;;;19.38;;
75930;SDS011;64609;47.052;15.462;2023-12-28T02:34:53;27.25;;;18.70;;
75930;SDS011;64609;47.052;15.462;2023-12-28T02:37:25;29.75;;;18.83;;
75930;SDS011;64609;47.052;15.462;2023-12-28T02:39:51;96.22;;;17.65;;
75930;SDS011;64609;47.052;15.462;2023-12-28T02:42:18;129.38;;;18.02;;
75930;SDS011;64609;47.052;15.462;2023-12-28T02:44:44;89.55;;;16.92;;
75930;SDS011;64609;47.052;15.462;2023-12-28T02:47:09;51.60;;;16.25;;
75930;SDS011;64609;47.052;15.462;2023-12-28T02:49:35;83.65;;;19.77;;
75930;SDS011;64609;47.052;15.462;2023-12-28T02:52:01;82.95;;;18.70;;
75930;SDS011;64609;47.052;15.462;2023-12-28T02:54:26;29.63;;;16.98;;
75930;SDS011;64609;47.052;15.462;2023-12-28T02:56:52;49.13;;;15.93;;
75930;SDS011;64609;47.052;15.462;2023-12-28T02:59:17;82.10;;;17.38;;
75930;SDS011;64609;47.052;15.462;2023-12-28T03:01:43;75.70;;;16.40;;
75930;SDS011;64609;47.052;15.462;2023-12-28T03:04:09;43.17;;;15.55;;
75930;SDS011;64609;47.052;15.462;2023-12-28T03:06:34;150.48;;;20.52;;
75930;SDS011;64609;47.052;15.462;2023-12-28T03:09:00;48.53;;;17.08;;
75930;SDS011;64609;47.052;15.462;2023-12-28T03:11:26;61.72;;;15.68;;
75930;SDS011;64609;47.052;15.462;2023-12-28T03:13:51;18.42;;;14.75;;
75930;SDS011;64609;47.052;15.462;2023-12-28T03:16:17;23.23;;;15.48;;
75930;SDS011;64609;47.052;15.462;2023-12-28T03:18:43;18.35;;;15.60;;
75930;SDS011;64609;47.052;15.462;2023-12-28T03:21:09;44.95;;;14.48;;
75930;SDS011;64609;47.052;15.462;2023-12-28T03:23:34;62.05;;;16.52;;
75930;SDS011;64609;47.052;15.462;2023-12-28T03:26:00;65.57;;;15.38;;
75930;SDS011;64609;47.052;15.462;2023-12-28T03:28:26;111.07;;;17.75;;
75930;SDS011;64609;47.052;15.462;2023-12-28T03:30:51;36.08;;;15.45;;
75930;SDS011;64609;47.052;15.462;2023-12-28T03:33:17;67.85;;;15.48;;
75930;SDS011;64609;47.052;15.462;2023-12-28T03:35:42;28.48;;;14.48;;
75930;SDS011;64609;47.052;15.462;2023-12-28T03:38:08;63.42;;;16.05;;
75930;SDS011;64609;47.052;15.462;2023-12-28T03:40:33;49.03;;;14.65;;
75930;SDS011;64609;47.052;15.462;2023-12-28T03:42:59;76.40;;;16.02;;
75930;SDS011;64609;47.052;15.462;2023-12-28T03:45:25;23.27;;;14.43;;
75930;SDS011;64609;47.052;15.462;2023-12-28T03:47:50;22.80;;;13.40;;
75930;SDS011;64609;47.052;15.462;2023-12-28T03:50:16;25.60;;;14.00;;
75930;SDS011;64609;47.052;15.462;2023-12-28T03:52:41;24.58;;;15.40;;
75930;SDS011;64609;47.052;15.462;2023-12-28T03:55:07;104.00;;;15.23;;
75930;SDS011;64609;47.052;15.462;2023-12-28T03:57:33;55.45;;;16.50;;
75930;SDS011;64609;47.052;15.462;2023-12-28T03:59:59;48.17;;;14.88;;
75930;SDS011;64609;47.052;15.462;2023-12-28T04:02:24;136.63;;;15.60;;
75930;SDS011;64609;47.052;15.462;2023-12-28T04:04:52;30.75;;;13.23;;
75930;SDS011;64609;47.052;15.462;2023-12-28T04:07:18;170.13;;;16.17;;
75930;SDS011;64609;47.052;15.462;2023-12-28T04:09:43;145.98;;;15.93;;
75930;SDS011;64609;47.052;15.462;2023-12-28T04:12:09;80.10;;;13.98;;
75930;SDS011;64609;47.052;15.462;2023-12-28T04:14:35;113.93;;;15.98;;
75930;SDS011;64609;47.052;15.462;2023-12-28T04:17:00;32.92;;;13.38;;
75930;SDS011;64609;47.052;15.462;2023-12-28T04:19:26;19.70;;;13.80;;
75930;SDS011;64609;47.052;15.462;2023-12-28T04:21:51;17.42;;;12.70;;
75930;SDS011;64609;47.052;15.462;2023-12-28T04:24:17;30.63;;;13.68;;
75930;SDS011;64609;47.052;15.462;2023-12-28T04:26:43;18.63;;;13.15;;
75930;SDS011;64609;47.052;15.462;2023-12-28T04:29:08;21.80;;;15.80;;
75930;SDS011;64609;47.052;15.462;2023-12-28T04:31:39;20.60;;;13.50;;
75930;SDS011;64609;47.052;15.462;2023-12-28T04:34:05;51.72;;;15.20;;
75930;SDS011;64609;47.052;15.462;2023-12-28T04:36:31;22.83;;;14.05;;
75930;SDS011;64609;47.052;15.462;2023-12-28T04:38:57;21.85;;;14.25;;
75930;SDS011;64609;47.052;15.462;2023-12-28T04:41:22;32.20;;;13.32;;
75930;SDS011;64609;47.052;15.462;2023-12-28T04:43:48;25.23;;;14.63;;
75930;SDS011;64609;47.052;15.462;2023-12-28T04:46:14;34.42;;;13.68;;
75930;SDS011;64609;47.052;15.462;2023-12-28T04:48:39;20.45;;;12.50;;
75930;SDS011;64609;47.052;15.462;2023-12-28T04:51:05;68.05;;;13.95;;
75930;SDS011;64609;47.052;15.462;2023-12-28T04:53:30;97.38;;;15.25;;
75930;SDS011;64609;47.052;15.462;2023-12-28T04:55:57;83.90;;;14.00;;
75930;SDS011;64609;47.052;15.462;2023-12-28T04:58:22;68.05;;;13.70;;
75930;SDS011;64609;47.052;15.462;2023-12-28T05:00:48;42.15;;;13.35;;
75930;SDS011;64609;47.052;15.462;2023-12-28T05:03:14;31.15;;;12.02;;
75930;SDS011;64609;47.052;15.462;2023-12-28T05:05:39;14.95;;;12.10;;
75930;SDS011;64609;47.052;15.462;2023-12-28T05:08:05;39.97;;;14.05;;
75930;SDS011;64609;47.052;15.462;2023-12-28T05:10:31;17.90;;;12.25;;
75930;SDS011;64609;47.052;15.462;2023-12-28T05:12:56;30.88;;;12.50;;
75930;SDS011;64609;47.052;15.462;2023-12-28T05:15:22;44.33;;;14.52;;
75930;SDS011;64609;47.052;15.462;2023-12-28T05:17:47;22.63;;;13.02;;
75930;SDS011;64609;47.052;15.462;2023-12-28T05:20:15;17.27;;;12.38;;
75930;SDS011;64609;47.052;15.462;2023-12-28T05:22:41;21.42;;;11.48;;
75930;SDS011;64609;47.052;15.462;2023-12-28T05:25:06;19.13;;;11.07;;
75930;SDS011;64609;47.052;15.462;2023-12-28T05:27:32;30.85;;;11.63;;
75930;SDS011;64609;47.052;15.462;2023-12-28T05:29:58;15.57;;;10.52;;
75930;SDS011;64609;47.052;15.462;2023-12-28T05:32:23;14.90;;;10.57;;
75930;SDS011;64609;47.052;15.462;2023-12-28T05:34:49;15.32;;;12.07;;
75930;SDS011;64609;47.052;15.462;2023-12-28T05:37:15;32.47;;;11.68;;
75930;SDS011;64609;47.052;15.462;2023-12-28T05:39:40;19.60;;;12.05;;
75930;SDS011;64609;47.052;15.462;2023-12-28T05:42:06;12.82;;;11.13;;
75930;SDS011;64609;47.052;15.462;2023-12-28T05:44:31;13.95;;;11.05;;
75930;SDS011;64609;47.052;15.462;2023-12-28T05:46:57;25.67;;;12.63;;
75930;SDS011;64609;47.052;15.462;2023-12-28T05:49:23;49.10;;;12.48;;
75930;SDS011;64609;47.052;15.462;2023-12-28T05:51:50;75.60;;;13.77;;
75930;SDS011;64609;47.052;15.462;2023-12-28T05:54:15;134.90;;;14.18;;
75930;SDS011;64609;47.052;15.462;2023-12-28T05:56:41;52.67;;;12.25;;
75930;SDS011;64609;47.052;15.462;2023-12-28T05:59:06;61.63;;;13.73;;
75930;SDS011;64609;47.052;15.462;2023-12-28T06:01:32;145.63;;;14.77;;
75930;SDS011;64609;47.052;15.462;2023-12-28T06:04:06;62.75;;;12.32;;
75930;SDS011;64609;47.052;15.462;2023-12-28T06:06:31;95.50;;;13.82;;
75930;SDS011;64609;47.052;15.462;2023-12-28T06:08:57;42.08;;;12.88;;
75930;SDS011;64609;47.052;15.462;2023-12-28T06:11:23;287.67;;;18.58;;
75930;SDS011;64609;47.052;15.462;2023-12-28T06:13:48;106.18;;;13.90;;
75930;SDS011;64609;47.052;15.462;2023-12-28T06:16:14;37.53;;;13.48;;
75930;SDS011;64609;47.052;15.462;2023-12-28T06:18:40;24.50;;;14.07;;
75930;SDS011;64609;47.052;15.462;2023-12-28T06:21:05;22.00;;;13.48;;
75930;SDS011;64609;47.052;15.462;2023-12-28T06:23:33;169.27;;;16.48;;
75930;SDS011;64609;47.052;15.462;2023-12-28T06:26:03;48.35;;;12.95;;
75930;SDS011;64609;47.052;15.462;2023-12-28T06:28:30;40.20;;;12.63;;
75930;SDS011;64609;47.052;15.462;2023-12-28T06:30:57;108.97;;;16.33;;
75930;SDS011;64609;47.052;15.462;2023-12-28T06:33:25;67.40;;;15.45;;
75930;SDS011;64609;47.052;15.462;2023-12-28T06:35:54;83.25;;;15.63;;
75930;SDS011;64609;47.052;15.462;2023-12-28T06:38:22;22.83;;;12.15;;
75930;SDS011;64609;47.052;15.462;2023-12-28T06:40:48;105.10;;;16.38;;
75930;SDS011;64609;47.052;15.462;2023-12-28T06:43:13;177.52;;;16.13;;
75930;SDS011;64609;47.052;15.462;2023-12-28T06:45:40;79.13;;;14.25;;
75930;SDS011;64609;47.052;15.462;2023-12-28T06:48:06;30.67;;;12.98;;
75930;SDS011;64609;47.052;15.462;2023-12-28T06:50:31;24.60;;;13.73;;
75930;SDS011;64609;47.052;15.462;2023-12-28T06:52:57;54.97;;;13.23;;
75930;SDS011;64609;47.052;15.462;2023-12-28T06:55:23;53.92;;;13.25;;
75930;SDS011;64609;47.052;15.462;2023-12-28T06:57:48;16.17;;;12.90;;
75930;SDS011;64609;47.052;15.462;2023-12-28T07:00:14;21.38;;;12.52;;
75930;SDS011;64609;47.052;15.462;2023-12-28T07:02:40;14.45;;;11.23;;
75930;SDS011;64609;47.052;15.462;2023-12-28T07:05:05;31.58;;;12.98;;
75930;SDS011;64609;47.052;15.462;2023-12-28T07:07:31;21.00;;;12.43;;
75930;SDS011;64609;47.052;15.462;2023-12-28T07:09:57;33.15;;;14.23;;
75930;SDS011;64609;47.052;15.462;2023-12-28T07:12:22;17.73;;;12.95;;
75930;SDS011;64609;47.052;15.462;2023-12-28T07:14:49;32.20;;;14.73;;
75930;SDS011;64609;47.052;15.462;2023-12-28T07:17:14;20.92;;;13.15;;
75930;SDS011;64609;47.052;15.462;2023-12-28T07:19:42;18.10;;;13.23;;
75930;SDS011;64609;47.052;15.462;2023-12-28T07:22:08;23.33;;;14.02;;
75930;SDS011;64609;47.052;15.462;2023-12-28T07:24:33;24.20;;;14.32;;
75930;SDS011;64609;47.052;15.462;2023-12-28T07:26:59;26.42;;;14.18;;
75930;SDS011;64609;47.052;15.462;2023-12-28T07:29:25;21.45;;;14.52;;
75930;SDS011;64609;47.052;15.462;2023-12-28T07:31:50;15.45;;;13.10;;
75930;SDS011;64609;47.052;15.462;2023-12-28T07:34:16;16.92;;;12.82;;
75930;SDS011;64609;47.052;15.462;2023-12-28T07:36:42;16.42;;;13.35;;
75930;SDS011;64609;47.052;15.462;2023-12-28T07:39:08;17.23;;;12.98;;
75930;SDS011;64609;47.052;15.462;2023-12-28T07:41:34;16.88;;;13.23;;
75930;SDS011;64609;47.052;15.462;2023-12-28T07:44:00;16.42;;;13.23;;
75930;SDS011;64609;47.052;15.462;2023-12-28T07:46:25;22.25;;;16.80;;
75930;SDS011;64609;47.052;15.462;2023-12-28T07:48:52;21.38;;;15.60;;
75930;SDS011;64609;47.052;15.462;2023-12-28T07:51:17;22.58;;;16.67;;
75930;SDS011;64609;47.052;15.462;2023-12-28T07:53:43;20.42;;;15.45;;
75930;SDS011;64609;47.052;15.462;2023-12-28T07:56:08;19.95;;;15.68;;
75930;SDS011;64609;47.052;15.462;2023-12-28T07:58:34;24.85;;;14.38;;
75930;SDS011;64609;47.052;15.462;2023-12-28T08:01:02;16.02;;;14.13;;
75930;SDS011;64609;47.052;15.462;2023-12-28T08:03:28;16.08;;;13.80;;
75930;SDS011;64609;47.052;15.462;2023-12-28T08:05:54;15.30;;;13.70;;
75930;SDS011;64609;47.052;15.462;2023-12-28T08:08:19;15.38;;;13.77;;
75930;SDS011;64609;47.052;15.462;2023-12-28T08:10:45;14.50;;;12.90;;
75930;SDS011;64609;47.052;15.462;2023-12-28T08:13:10;14.07;;;12.60;;
75930;SDS011;64609;47.052;15.462;2023-12-28T08:15:36;12.57;;;11.27;;
75930;SDS011;64609;47.052;15.462;2023-12-28T08:18:01;13.35;;;11.95;;
75930;SDS011;64609;47.052;15.462;2023-12-28T08:20:27;14.15;;;11.88;;
75930;SDS011;64609;47.052;15.462;2023-12-28T08:22:53;12.52;;;11.23;;
75930;SDS011;64609;47.052;15.462;2023-12-28T08:25:19;11.95;;;10.65;;
75930;SDS011;64609;47.052;15.462;2023-12-28T08:27:44;13.15;;;11.10;;
75930;SDS011;64609;47.052;15.462;2023-12-28T08:30:10;14.73;;;10.45;;
75930;SDS011;64609;47.052;15.462;2023-12-28T08:32:36;11.95;;;10.57;;
75930;SDS011;64609;47.052;15.462;2023-12-28T08:35:01;14.88;;;10.32;;
75930;SDS011;64609;47.052;15.462;2023-12-28T08:37:27;13.45;;;10.90;;
75930;SDS011;64609;47.052;15.462;2023-12-28T08:39:53;14.15;;;11.48;;
75930;SDS011;64609;47.052;15.462;2023-12-28T08:42:20;14.65;;;12.38;;
75930;SDS011;64609;47.052;15.462;2023-12-28T08:44:46;13.40;;;10.65;;
75930;SDS011;64609;47.052;15.462;2023-12-28T08:47:11;14.20;;;10.82;;
75930;SDS011;64609;47.052;15.462;2023-12-28T08:49:37;14.50;;;10.85;;
75930;SDS011;64609;47.052;15.462;2023-12-28T08:52:02;13.10;;;10.40;;
75930;SDS011;64609;47.052;15.462;2023-12-28T08:54:28;13.68;;;10.40;;
75930;SDS011;64609;47.052;15.462;2023-12-28T08:56:54;12.90;;;9.88;;
75930;SDS011;64609;47.052;15.462;2023-12-28T08:59:19;11.95;;;9.68;;
75930;SDS011;64609;47.052;15.462;2023-12-28T09:01:45;14.43;;;9.15;;
75930;SDS011;64609;47.052;15.462;2023-12-28T09:04:10;13.15;;;9.23;;
75930;SDS011;64609;47.052;15.462;2023-12-28T09:06:36;9.63;;;8.43;;
75930;SDS011;64609;47.052;15.462;2023-12-28T09:09:02;9.65;;;8.43;;
75930;SDS011;64609;47.052;15.462;2023-12-28T09:11:28;10.68;;;9.00;;
75930;SDS011;64609;47.052;15.462;2023-12-28T09:13:54;10.23;;;8.27;;
75930;SDS011;64609;47.052;15.462;2023-12-28T09:16:20;11.30;;;9.13;;
75930;SDS011;64609;47.052;15.462;2023-12-28T09:18:46;12.30;;;8.80;;
75930;SDS011;64609;47.052;15.462;2023-12-28T09:21:12;13.77;;;8.93;;
75930;SDS011;64609;47.052;15.462;2023-12-28T09:23:38;10.95;;;8.88;;
75930;SDS011;64609;47.052;15.462;2023-12-28T09:26:05;11.82;;;8.18;;
75930;SDS011;64609;47.052;15.462;2023-12-28T09:28:34;10.88;;;8.65;;
75930;SDS011;64609;47.052;15.462;2023-12-28T09:31:00;10.93;;;8.65;;
75930;SDS011;64609;47.052;15.462;2023-12-28T09:33:27;12.40;;;8.68;;
75930;SDS011;64609;47.052;15.462;2023-12-28T09:35:53;11.85;;;8.48;;
75930;SDS011;64609;47.052;15.462;2023-12-28T09:38:18;10.40;;;8.30;;
75930;SDS011;64609;47.052;15.462;2023-12-28T09:40:44;10.70;;;8.48;;
75930;SDS011;64609;47.052;15.462;2023-12-28T09:43:15;10.32;;;7.38;;
75930;SDS011;64609;47.052;15.462;2023-12-28T09:45:50;10.45;;;7.25;;
75930;SDS011;64609;47.052;15.462;2023-12-28T09:48:17;10.10;;;6.70;;
75930;SDS011;64609;47.052;15.462;2023-12-28T09:50:54;9.45;;;6.60;;
75930;SDS011;64609;47.052;15.462;2023-12-28T09:53:21;8.38;;;7.05;;
75930;SDS011;64609;47.052;15.462;2023-12-28T09:55:50;8.50;;;6.68;;
75930;SDS011;64609;47.052;15.462;2023-12-28T09:58:19;9.70;;;6.75;;
75930;SDS011;64609;47.052;15.462;2023-12-28T10:00:47;10.52;;;6.28;;
75930;SDS011;64609;47.052;15.462;2023-12-28T10:03:15;8.07;;;5.50;;
75930;SDS011;64609;47.052;15.462;2023-12-28T10:05:42;8.82;;;6.00;;
75930;SDS011;64609;47.052;15.462;2023-12-28T10:08:08;10.00;;;5.50;;
75930;SDS011;64609;47.052;15.462;2023-12-28T10:10:35;7.53;;;5.60;;
75930;SDS011;64609;47.052;15.462;2023-12-28T10:13:01;8.43;;;6.20;;
75930;SDS011;64609;47.052;15.462;2023-12-28T10:15:27;6.85;;;4.55;;
75930;SDS011;64609;47.052;15.462;2023-12-28T10:17:55;7.30;;;4.78;;
75930;SDS011;64609;47.052;15.462;2023-12-28T10:20:21;7.95;;;5.15;;
75930;SDS011;64609;47.052;15.462;2023-12-28T10:22:46;6.22;;;5.00;;
75930;SDS011;64609;47.052;15.462;2023-12-28T10:25:12;9.35;;;5.55;;
75930;SDS011;64609;47.052;15.462;2023-12-28T10:27:39;7.88;;;5.55;;
75930;SDS011;64609;47.052;15.462;2023-12-28T10:30:07;7.00;;;5.43;;
75930;SDS011;64609;47.052;15.462;2023-12-28T10:32:35;6.70;;;5.25;;
75930;SDS011;64609;47.052;15.462;2023-12-28T10:35:01;5.82;;;5.22;;
75930;SDS011;64609;47.052;15.462;2023-12-28T10:37:27;7.40;;;5.72;;
75930;SDS011;64609;47.052;15.462;2023-12-28T10:39:56;7.93;;;5.63;;
75930;SDS011;64609;47.052;15.462;2023-12-28T10:42:34;8.95;;;5.20;;
75930;SDS011;64609;47.052;15.462;2023-12-28T10:45:09;7.40;;;5.15;;
75930;SDS011;64609;47.052;15.462;2023-12-28T10:47:39;7.32;;;5.47;;
75930;SDS011;64609;47.052;15.462;2023-12-28T10:50:08;8.00;;;5.70;;
75930;SDS011;64609;47.052;15.462;2023-12-28T10:52:36;9.70;;;6.00;;
75930;SDS011;64609;47.052;15.462;2023-12-28T10:57:58;8.75;;;6.00;;
75930;SDS011;64609;47.052;15.462;2023-12-28T11:03:03;8.00;;;5.68;;
75930;SDS011;64609;47.052;15.462;2023-12-28T11:05:34;7.80;;;5.60;;
75930;SDS011;64609;47.052;15.462;2023-12-28T11:08:02;10.05;;;5.60;;
75930;SDS011;64609;47.052;15.462;2023-12-28T11:10:29;8.75;;;6.05;;
75930;SDS011;64609;47.052;15.462;2023-12-28T11:12:58;8.07;;;5.32;;
75930;SDS011;64609;47.052;15.462;2023-12-28T11:15:25;7.70;;;5.90;;
75930;SDS011;64609;47.052;15.462;2023-12-28T11:17:51;9.18;;;5.60;;
75930;SDS011;64609;47.052;15.462;2023-12-28T11:20:17;8.13;;;6.25;;
75930;SDS011;64609;47.052;15.462;2023-12-28T11:22:44;6.30;;;4.78;;
75930;SDS011;64609;47.052;15.462;2023-12-28T11:25:16;9.00;;;6.28;;
75930;SDS011;64609;47.052;15.462;2023-12-28T11:27:43;9.70;;;6.30;;
75930;SDS011;64609;47.052;15.462;2023-12-28T11:30:11;13.77;;;7.53;;
75930;SDS011;64609;47.052;15.462;2023-12-28T11:32:38;8.10;;;6.10;;
75930;SDS011;64609;47.052;15.462;2023-12-28T11:35:07;10.25;;;6.93;;
75930;SDS011;64609;47.052;15.462;2023-12-28T11:37:35;8.95;;;6.72;;
75930;SDS011;64609;47.052;15.462;2023-12-28T11:40:13;14.05;;;6.68;;
75930;SDS011;64609;47.052;15.462;2023-12-28T11:43:14;14.75;;;6.95;;
75930;SDS011;64609;47.052;15.462;2023-12-28T11:45:49;12.65;;;6.90;;
75930;SDS011;64609;47.052;15.462;2023-12-28T11:48:25;8.93;;;6.18;;
75930;SDS011;64609;47.052;15.462;2023-12-28T11:50:54;9.25;;;6.97;;
75930;SDS011;64609;47.052;15.462;2023-12-28T11:53:24;7.53;;;6.15;;
75930;SDS011;64609;47.052;15.462;2023-12-28T11:55:50;12.82;;;7.30;;
75930;SDS011;64609;47.052;15.462;2023-12-28T11:58:17;11.70;;;6.60;;
75930;SDS011;64609;47.052;15.462;2023-12-28T12:00:43;13.90;;;6.72;;
75930;SDS011;64609;47.052;15.462;2023-12-28T12:03:09;9.88;;;6.43;;
75930;SDS011;64609;47.052;15.462;2023-12-28T12:05:36;13.00;;;6.85;;
75930;SDS011;64609;47.052;15.462;2023-12-28T12:08:02;13.23;;;7.07;;
75930;SDS011;64609;47.052;15.462;2023-12-28T12:10:28;12.50;;;7.03;;
75930;SDS011;64609;47.052;15.462;2023-12-28T12:12:54;13.07;;;7.38;;
75930;SDS011;64609;47.052;15.462;2023-12-28T12:15:19;15.15;;;7.07;;
75930;SDS011;64609;47.052;15.462;2023-12-28T12:17:45;20.58;;;9.55;;
75930;SDS011;64609;47.052;15.462;2023-12-28T12:20:11;13.05;;;8.20;;
75930;SDS011;64609;47.052;15.462;2023-12-28T12:22:37;17.58;;;8.80;;
75930;SDS011;64609;47.052;15.462;2023-12-28T12:25:04;17.60;;;8.52;;
75930;SDS011;64609;47.052;15.462;2023-12-28T12:27:31;12.82;;;7.38;;
75930;SDS011;64609;47.052;15.462;2023-12-28T12:29:57;13.23;;;7.80;;
75930;SDS011;64609;47.052;15.462;2023-12-28T12:32:23;13.88;;;8.02;;
75930;SDS011;64609;47.052;15.462;2023-12-28T12:34:49;12.85;;;7.18;;
75930;SDS011;64609;47.052;15.462;2023-12-28T12:37:16;12.85;;;6.85;;
75930;SDS011;64609;47.052;15.462;2023-12-28T12:39:42;14.50;;;7.18;;
75930;SDS011;64609;47.052;15.462;2023-12-28T12:42:12;9.07;;;6.15;;
75930;SDS011;64609;47.052;15.462;2023-12-28T12:44:38;12.15;;;6.40;;
75930;SDS011;64609;47.052;15.462;2023-12-28T12:47:04;13.07;;;6.53;;
75930;SDS011;64609;47.052;15.462;2023-12-28T12:49:31;10.60;;;6.30;;
75930;SDS011;64609;47.052;15.462;2023-12-28T12:51:56;11.43;;;6.80;;
75930;SDS011;64609;47.052;15.462;2023-12-28T12:54:22;10.85;;;6.78;;
75930;SDS011;64609;47.052;15.462;2023-12-28T12:56:49;12.20;;;6.93;;
75930;SDS011;64609;47.052;15.462;2023-12-28T12:59:15;10.60;;;6.60;;
75930;SDS011;64609;47.052;15.462;2023-12-28T13:01:45;19.50;;;7.13;;
75930;SDS011;64609;47.052;15.462;2023-12-28T13:04:14;16.15;;;7.18;;
75930;SDS011;64609;47.052;15.462;2023-12-28T13:06:41;18.38;;;8.50;;
75930;SDS011;64609;47.052;15.462;2023-12-28T13:09:07;16.35;;;7.47;;
75930;SDS011;64609;47.052;15.462;2023-12-28T13:11:33;12.32;;;7.00;;
75930;SDS011;64609;47.052;15.462;2023-12-28T13:13:59;9.77;;;6.10;;
75930;SDS011;64609;47.052;15.462;2023-12-28T13:16:25;9.80;;;6.10;;
75930;SDS011;64609;47.052;15.462;2023-12-28T13:18:50;9.70;;;6.40;;
75930;SDS011;64609;47.052;15.462;2023-12-28T13:21:16;10.00;;;6.45;;
75930;SDS011;64609;47.052;15.462;2023-12-28T13:23:42;15.70;;;6.43;;
75930;SDS011;64609;47.052;15.462;2023-12-28T13:26:08;10.15;;;6.45;;
75930;SDS011;64609;47.052;15.462;2023-12-28T13:28:33;11.00;;;6.13;;
75930;SDS011;64609;47.052;15.462;2023-12-28T13:30:59;11.68;;;5.82;;
75930;SDS011;64609;47.052;15.462;2023-12-28T13:33:25;8.45;;;5.82;;
75930;SDS011;64609;47.052;15.462;2023-12-28T13:35:51;9.68;;;6.60;;
75930;SDS011;64609;47.052;15.462;2023-12-28T13:38:16;10.50;;;6.60;;
75930;SDS011;64609;47.052;15.462;2023-12-28T13:40:42;11.95;;;6.10;;
75930;SDS011;64609;47.052;15.462;2023-12-28T13:43:07;12.57;;;6.50;;
75930;SDS011;64609;47.052;15.462;2023-12-28T13:45:34;9.70;;;5.90;;
75930;SDS011;64609;47.052;15.462;2023-12-28T13:48:00;10.52;;;6.70;;
75930;SDS011;64609;47.052;15.462;2023-12-28T13:50:26;12.30;;;5.93;;
75930;SDS011;64609;47.052;15.462;2023-12-28T13:52:51;11.90;;;5.95;;
75930;SDS011;64609;47.052;15.462;2023-12-28T13:55:17;9.80;;;6.00;;
75930;SDS011;64609;47.052;15.462;2023-12-28T13:57:42;7.45;;;5.50;;
75930;SDS011;64609;47.052;15.462;2023-12-28T14:00:08;11.88;;;6.15;;
75930;SDS011;64609;47.052;15.462;2023-12-28T14:02:34;13.57;;;6.00;;
75930;SDS011;64609;47.052;15.462;2023-12-28T14:05:00;9.40;;;5.72;;
75930;SDS011;64609;47.052;15.462;2023-12-28T14:07:25;11.13;;;6.13;;
75930;SDS011;64609;47.052;15.462;2023-12-28T14:09:51;10.75;;;5.82;;
75930;SDS011;64609;47.052;15.462;2023-12-28T14:12:17;8.52;;;5.50;;
75930;SDS011;64609;47.052;15.462;2023-12-28T14:14:43;11.88;;;5.93;;
75930;SDS011;64609;47.052;15.462;2023-12-28T14:17:08;8.68;;;5.53;;